sensor_id;sensor_type;location;lat;lon;timestamp;P1;durP1;ratioP1;P2;durP2;ratioP2
41685;SDS011;27370;42.764;23.432;2023-02-05T00:01:49;8.30;;;4.03;;
41685;SDS011;27370;42.764;23.432;2023-02-05T00:04:15;9.07;;;3.60;;
41685;SDS011;27370;42.764;23.432;2023-02-05T00:06:41;8.77;;;3.83;;
41685;SDS011;27370;42.764;23.432;2023-02-05T00:09:06;7.93;;;3.50;;
41685;SDS011;27370;42.764;23.432;2023-02-05T00:11:32;8.77;;;3.42;;
41685;SDS011;27370;42.764;23.432;2023-02-05T00:13:58;7.53;;;3.60;;
41685;SDS011;27370;42.764;23.432;2023-02-05T00:16:23;9.35;;;3.53;;
41685;SDS011;27370;42.764;23.432;2023-02-05T00:18:50;9.35;;;3.50;;
41685;SDS011;27370;42.764;23.432;2023-02-05T00:21:16;6.97;;;3.42;;
41685;SDS011;27370;42.764;23.432;2023-02-05T00:23:46;9.90;;;3.45;;
41685;SDS011;27370;42.764;23.432;2023-02-05T00:26:12;5.35;;;2.67;;
41685;SDS011;27370;42.764;23.432;2023-02-05T00:28:41;6.72;;;3.03;;
41685;SDS011;27370;42.764;23.432;2023-02-05T00:31:17;8.45;;;3.17;;
41685;SDS011;27370;42.764;23.432;2023-02-05T00:33:44;8.02;;;3.15;;
41685;SDS011;27370;42.764;23.432;2023-02-05T00:36:11;6.80;;;3.05;;
41685;SDS011;27370;42.764;23.432;2023-02-05T00:38:37;5.38;;;2.35;;
41685;SDS011;27370;42.764;23.432;2023-02-05T00:41:04;6.63;;;2.72;;
41685;SDS011;27370;42.764;23.432;2023-02-05T00:43:29;5.35;;;2.70;;
41685;SDS011;27370;42.764;23.432;2023-02-05T00:45:55;6.75;;;3.20;;
41685;SDS011;27370;42.764;23.432;2023-02-05T00:48:20;5.78;;;2.60;;
41685;SDS011;27370;42.764;23.432;2023-02-05T00:50:47;7.72;;;3.05;;
41685;SDS011;27370;42.764;23.432;2023-02-05T00:55:42;6.43;;;3.13;;
41685;SDS011;27370;42.764;23.432;2023-02-05T00:58:07;5.95;;;2.90;;
41685;SDS011;27370;42.764;23.432;2023-02-05T01:00:33;7.50;;;3.38;;
41685;SDS011;27370;42.764;23.432;2023-02-05T01:02:59;6.60;;;3.00;;
41685;SDS011;27370;42.764;23.432;2023-02-05T01:05:25;8.18;;;3.40;;
41685;SDS011;27370;42.764;23.432;2023-02-05T01:07:50;7.30;;;3.00;;
41685;SDS011;27370;42.764;23.432;2023-02-05T01:10:16;6.00;;;2.58;;
41685;SDS011;27370;42.764;23.432;2023-02-05T01:12:42;6.10;;;2.50;;
41685;SDS011;27370;42.764;23.432;2023-02-05T01:15:08;8.10;;;3.50;;
41685;SDS011;27370;42.764;23.432;2023-02-05T01:17:36;6.82;;;3.05;;
41685;SDS011;27370;42.764;23.432;2023-02-05T01:20:02;7.45;;;3.53;;
41685;SDS011;27370;42.764;23.432;2023-02-05T01:22:30;6.68;;;3.00;;
41685;SDS011;27370;42.764;23.432;2023-02-05T01:24:56;9.60;;;3.45;;
41685;SDS011;27370;42.764;23.432;2023-02-05T01:27:21;7.78;;;3.28;;
41685;SDS011;27370;42.764;23.432;2023-02-05T01:29:48;6.68;;;3.17;;
41685;SDS011;27370;42.764;23.432;2023-02-05T01:32:14;7.40;;;3.30;;
41685;SDS011;27370;42.764;23.432;2023-02-05T01:34:40;7.43;;;3.80;;
41685;SDS011;27370;42.764;23.432;2023-02-05T01:37:06;8.30;;;3.70;;
41685;SDS011;27370;42.764;23.432;2023-02-05T01:39:31;7.10;;;3.50;;
41685;SDS011;27370;42.764;23.432;2023-02-05T01:41:57;7.70;;;3.80;;
41685;SDS011;27370;42.764;23.432;2023-02-05T01:44:23;7.60;;;3.50;;
41685;SDS011;27370;42.764;23.432;2023-02-05T01:46:50;7.35;;;3.45;;
41685;SDS011;27370;42.764;23.432;2023-02-05T01:49:36;8.40;;;3.53;;
41685;SDS011;27370;42.764;23.432;2023-02-05T01:52:11;9.20;;;3.88;;
41685;SDS011;27370;42.764;23.432;2023-02-05T01:54:42;9.60;;;4.10;;
41685;SDS011;27370;42.764;23.432;2023-02-05T01:57:17;9.05;;;3.88;;
41685;SDS011;27370;42.764;23.432;2023-02-05T01:59:46;11.82;;;4.65;;
41685;SDS011;27370;42.764;23.432;2023-02-05T02:02:14;13.48;;;4.93;;
41685;SDS011;27370;42.764;23.432;2023-02-05T02:04:46;10.68;;;4.63;;
41685;SDS011;27370;42.764;23.432;2023-02-05T02:07:15;11.80;;;4.75;;
41685;SDS011;27370;42.764;23.432;2023-02-05T02:09:44;9.38;;;4.38;;
41685;SDS011;27370;42.764;23.432;2023-02-05T02:12:12;9.90;;;4.50;;
41685;SDS011;27370;42.764;23.432;2023-02-05T02:17:09;11.95;;;4.53;;
41685;SDS011;27370;42.764;23.432;2023-02-05T02:19:56;9.63;;;4.13;;
41685;SDS011;27370;42.764;23.432;2023-02-05T02:30:39;9.27;;;4.05;;
41685;SDS011;27370;42.764;23.432;2023-02-05T02:36:08;7.05;;;3.33;;
41685;SDS011;27370;42.764;23.432;2023-02-05T02:38:44;7.60;;;3.60;;
41685;SDS011;27370;42.764;23.432;2023-02-05T02:41:18;8.50;;;3.85;;
41685;SDS011;27370;42.764;23.432;2023-02-05T02:44:15;8.15;;;3.60;;
41685;SDS011;27370;42.764;23.432;2023-02-05T02:46:47;8.40;;;3.80;;
41685;SDS011;27370;42.764;23.432;2023-02-05T02:49:23;7.88;;;3.60;;
41685;SDS011;27370;42.764;23.432;2023-02-05T02:51:53;9.00;;;4.13;;
41685;SDS011;27370;42.764;23.432;2023-02-05T02:54:19;9.32;;;4.03;;
41685;SDS011;27370;42.764;23.432;2023-02-05T02:56:47;8.45;;;4.10;;
41685;SDS011;27370;42.764;23.432;2023-02-05T02:59:25;8.63;;;3.88;;
41685;SDS011;27370;42.764;23.432;2023-02-05T03:01:55;7.85;;;3.67;;
41685;SDS011;27370;42.764;23.432;2023-02-05T03:04:38;8.35;;;3.40;;
41685;SDS011;27370;42.764;23.432;2023-02-05T03:09:45;7.55;;;3.90;;
41685;SDS011;27370;42.764;23.432;2023-02-05T03:12:28;8.15;;;3.65;;
41685;SDS011;27370;42.764;23.432;2023-02-05T03:14:54;8.13;;;3.70;;
41685;SDS011;27370;42.764;23.432;2023-02-05T03:17:23;9.57;;;3.83;;
41685;SDS011;27370;42.764;23.432;2023-02-05T03:20:00;6.40;;;3.30;;
41685;SDS011;27370;42.764;23.432;2023-02-05T03:22:30;8.55;;;3.70;;
41685;SDS011;27370;42.764;23.432;2023-02-05T03:24:56;7.10;;;3.40;;
41685;SDS011;27370;42.764;23.432;2023-02-05T03:27:23;8.13;;;3.70;;
41685;SDS011;27370;42.764;23.432;2023-02-05T03:29:50;7.32;;;3.45;;
41685;SDS011;27370;42.764;23.432;2023-02-05T03:32:22;6.70;;;3.33;;
41685;SDS011;27370;42.764;23.432;2023-02-05T03:52:03;7.75;;;3.40;;
41685;SDS011;27370;42.764;23.432;2023-02-05T03:54:38;8.70;;;3.78;;
41685;SDS011;27370;42.764;23.432;2023-02-05T03:57:20;7.68;;;3.38;;
41685;SDS011;27370;42.764;23.432;2023-02-05T03:59:50;7.03;;;3.60;;
41685;SDS011;27370;42.764;23.432;2023-02-05T04:02:17;7.85;;;3.38;;
41685;SDS011;27370;42.764;23.432;2023-02-05T04:04:45;7.32;;;3.78;;
41685;SDS011;27370;42.764;23.432;2023-02-05T04:07:12;7.82;;;3.40;;
41685;SDS011;27370;42.764;23.432;2023-02-05T04:09:38;7.72;;;3.20;;
41685;SDS011;27370;42.764;23.432;2023-02-05T04:12:04;7.80;;;3.50;;
41685;SDS011;27370;42.764;23.432;2023-02-05T04:14:30;8.70;;;3.85;;
41685;SDS011;27370;42.764;23.432;2023-02-05T04:16:56;8.85;;;3.45;;
41685;SDS011;27370;42.764;23.432;2023-02-05T04:19:23;9.93;;;4.65;;
41685;SDS011;27370;42.764;23.432;2023-02-05T04:21:50;9.57;;;3.80;;
41685;SDS011;27370;42.764;23.432;2023-02-05T04:24:17;7.72;;;3.70;;
41685;SDS011;27370;42.764;23.432;2023-02-05T04:26:44;6.90;;;3.53;;
41685;SDS011;27370;42.764;23.432;2023-02-05T04:29:09;9.93;;;4.05;;
41685;SDS011;27370;42.764;23.432;2023-02-05T04:31:40;10.32;;;3.97;;
41685;SDS011;27370;42.764;23.432;2023-02-05T04:34:06;7.65;;;3.53;;
41685;SDS011;27370;42.764;23.432;2023-02-05T04:36:31;9.02;;;3.72;;
41685;SDS011;27370;42.764;23.432;2023-02-05T04:38:57;45.28;;;17.15;;
41685;SDS011;27370;42.764;23.432;2023-02-05T04:41:22;16.85;;;7.95;;
41685;SDS011;27370;42.764;23.432;2023-02-05T04:43:48;7.97;;;3.60;;
41685;SDS011;27370;42.764;23.432;2023-02-05T04:46:14;8.32;;;3.85;;
41685;SDS011;27370;42.764;23.432;2023-02-05T04:48:39;8.23;;;3.53;;
41685;SDS011;27370;42.764;23.432;2023-02-05T04:51:08;8.82;;;3.60;;
41685;SDS011;27370;42.764;23.432;2023-02-05T04:53:36;9.27;;;3.95;;
41685;SDS011;27370;42.764;23.432;2023-02-05T04:56:12;6.05;;;3.35;;
41685;SDS011;27370;42.764;23.432;2023-02-05T04:58:39;8.13;;;4.15;;
41685;SDS011;27370;42.764;23.432;2023-02-05T05:01:09;8.10;;;3.70;;
41685;SDS011;27370;42.764;23.432;2023-02-05T05:03:37;7.13;;;2.78;;
41685;SDS011;27370;42.764;23.432;2023-02-05T05:06:03;7.13;;;3.72;;
41685;SDS011;27370;42.764;23.432;2023-02-05T05:08:29;8.27;;;3.45;;
41685;SDS011;27370;42.764;23.432;2023-02-05T05:10:54;9.18;;;3.63;;
41685;SDS011;27370;42.764;23.432;2023-02-05T05:13:20;7.70;;;3.83;;
41685;SDS011;27370;42.764;23.432;2023-02-05T05:15:51;8.80;;;3.97;;
41685;SDS011;27370;42.764;23.432;2023-02-05T05:18:18;8.85;;;3.92;;
41685;SDS011;27370;42.764;23.432;2023-02-05T05:20:43;10.13;;;4.65;;
41685;SDS011;27370;42.764;23.432;2023-02-05T05:23:09;8.68;;;3.80;;
41685;SDS011;27370;42.764;23.432;2023-02-05T05:25:39;7.00;;;3.35;;
41685;SDS011;27370;42.764;23.432;2023-02-05T05:28:08;7.35;;;3.50;;
41685;SDS011;27370;42.764;23.432;2023-02-05T05:30:36;8.40;;;3.72;;
41685;SDS011;27370;42.764;23.432;2023-02-05T05:33:03;7.55;;;3.60;;
41685;SDS011;27370;42.764;23.432;2023-02-05T05:35:29;7.97;;;3.58;;
41685;SDS011;27370;42.764;23.432;2023-02-05T05:37:57;8.05;;;4.00;;
41685;SDS011;27370;42.764;23.432;2023-02-05T05:40:23;9.52;;;4.03;;
41685;SDS011;27370;42.764;23.432;2023-02-05T05:43:10;10.73;;;4.20;;
41685;SDS011;27370;42.764;23.432;2023-02-05T05:45:55;10.55;;;4.28;;
41685;SDS011;27370;42.764;23.432;2023-02-05T05:48:20;9.75;;;4.50;;
41685;SDS011;27370;42.764;23.432;2023-02-05T05:50:46;10.48;;;4.60;;
41685;SDS011;27370;42.764;23.432;2023-02-05T05:53:11;9.52;;;4.38;;
41685;SDS011;27370;42.764;23.432;2023-02-05T05:55:37;8.90;;;4.70;;
41685;SDS011;27370;42.764;23.432;2023-02-05T05:58:02;10.40;;;4.47;;
41685;SDS011;27370;42.764;23.432;2023-02-05T06:00:29;9.27;;;4.40;;
41685;SDS011;27370;42.764;23.432;2023-02-05T06:02:54;9.27;;;4.10;;
41685;SDS011;27370;42.764;23.432;2023-02-05T06:05:20;11.10;;;4.25;;
41685;SDS011;27370;42.764;23.432;2023-02-05T06:07:45;7.72;;;3.80;;
41685;SDS011;27370;42.764;23.432;2023-02-05T06:10:11;7.95;;;3.92;;
41685;SDS011;27370;42.764;23.432;2023-02-05T06:12:36;8.23;;;4.00;;
41685;SDS011;27370;42.764;23.432;2023-02-05T06:15:02;9.27;;;4.07;;
41685;SDS011;27370;42.764;23.432;2023-02-05T06:17:28;10.10;;;4.10;;
41685;SDS011;27370;42.764;23.432;2023-02-05T06:19:53;8.75;;;4.20;;
41685;SDS011;27370;42.764;23.432;2023-02-05T06:22:19;9.60;;;4.45;;
41685;SDS011;27370;42.764;23.432;2023-02-05T06:24:44;8.50;;;3.35;;
41685;SDS011;27370;42.764;23.432;2023-02-05T06:27:10;7.82;;;3.97;;
41685;SDS011;27370;42.764;23.432;2023-02-05T06:29:35;9.30;;;4.32;;
41685;SDS011;27370;42.764;23.432;2023-02-05T06:32:00;10.02;;;4.60;;
41685;SDS011;27370;42.764;23.432;2023-02-05T06:34:26;10.32;;;4.03;;
41685;SDS011;27370;42.764;23.432;2023-02-05T06:36:52;9.13;;;3.63;;
41685;SDS011;27370;42.764;23.432;2023-02-05T06:39:17;7.47;;;3.72;;
41685;SDS011;27370;42.764;23.432;2023-02-05T06:41:42;9.25;;;4.20;;
41685;SDS011;27370;42.764;23.432;2023-02-05T06:44:08;9.85;;;4.05;;
41685;SDS011;27370;42.764;23.432;2023-02-05T06:46:33;8.80;;;3.78;;
41685;SDS011;27370;42.764;23.432;2023-02-05T06:48:59;8.98;;;3.63;;
41685;SDS011;27370;42.764;23.432;2023-02-05T06:51:24;4.95;;;1.92;;
41685;SDS011;27370;42.764;23.432;2023-02-05T06:53:51;5.28;;;2.08;;
41685;SDS011;27370;42.764;23.432;2023-02-05T06:56:19;3.28;;;1.65;;
41685;SDS011;27370;42.764;23.432;2023-02-05T06:58:44;7.93;;;3.55;;
41685;SDS011;27370;42.764;23.432;2023-02-05T07:01:10;3.40;;;1.98;;
41685;SDS011;27370;42.764;23.432;2023-02-05T07:03:35;2.13;;;1.13;;
41685;SDS011;27370;42.764;23.432;2023-02-05T07:06:04;2.33;;;1.15;;
41685;SDS011;27370;42.764;23.432;2023-02-05T07:08:30;2.78;;;1.30;;
41685;SDS011;27370;42.764;23.432;2023-02-05T07:10:56;7.05;;;2.75;;
41685;SDS011;27370;42.764;23.432;2023-02-05T07:13:22;6.03;;;2.50;;
41685;SDS011;27370;42.764;23.432;2023-02-05T07:15:48;9.48;;;3.65;;
41685;SDS011;27370;42.764;23.432;2023-02-05T07:18:14;4.25;;;2.25;;
41685;SDS011;27370;42.764;23.432;2023-02-05T07:20:39;3.28;;;1.55;;
41685;SDS011;27370;42.764;23.432;2023-02-05T07:23:05;7.35;;;3.22;;
41685;SDS011;27370;42.764;23.432;2023-02-05T07:25:32;3.70;;;2.03;;
41685;SDS011;27370;42.764;23.432;2023-02-05T07:28:02;2.75;;;1.65;;
41685;SDS011;27370;42.764;23.432;2023-02-05T07:30:29;9.20;;;4.70;;
41685;SDS011;27370;42.764;23.432;2023-02-05T07:32:54;7.63;;;3.58;;
41685;SDS011;27370;42.764;23.432;2023-02-05T07:35:20;4.43;;;2.38;;
41685;SDS011;27370;42.764;23.432;2023-02-05T07:37:45;4.25;;;1.42;;
41685;SDS011;27370;42.764;23.432;2023-02-05T07:40:11;6.85;;;2.20;;
41685;SDS011;27370;42.764;23.432;2023-02-05T07:42:36;7.00;;;2.88;;
41685;SDS011;27370;42.764;23.432;2023-02-05T07:45:02;7.88;;;2.90;;
41685;SDS011;27370;42.764;23.432;2023-02-05T07:47:28;4.25;;;1.63;;
41685;SDS011;27370;42.764;23.432;2023-02-05T07:49:54;3.33;;;1.77;;
41685;SDS011;27370;42.764;23.432;2023-02-05T07:52:19;3.67;;;1.33;;
41685;SDS011;27370;42.764;23.432;2023-02-05T07:54:46;2.53;;;0.98;;
41685;SDS011;27370;42.764;23.432;2023-02-05T07:57:12;9.45;;;3.15;;
41685;SDS011;27370;42.764;23.432;2023-02-05T07:59:38;2.15;;;0.90;;
41685;SDS011;27370;42.764;23.432;2023-02-05T08:02:04;4.25;;;1.70;;
41685;SDS011;27370;42.764;23.432;2023-02-05T08:04:30;2.28;;;1.00;;
41685;SDS011;27370;42.764;23.432;2023-02-05T08:06:55;2.70;;;1.35;;
41685;SDS011;27370;42.764;23.432;2023-02-05T08:09:21;2.65;;;1.40;;
41685;SDS011;27370;42.764;23.432;2023-02-05T08:11:46;3.33;;;1.90;;
41685;SDS011;27370;42.764;23.432;2023-02-05T08:14:12;5.03;;;2.05;;
41685;SDS011;27370;42.764;23.432;2023-02-05T08:16:37;2.65;;;1.50;;
41685;SDS011;27370;42.764;23.432;2023-02-05T08:19:03;3.30;;;1.50;;
41685;SDS011;27370;42.764;23.432;2023-02-05T08:21:28;4.22;;;1.90;;
41685;SDS011;27370;42.764;23.432;2023-02-05T08:23:54;6.00;;;1.73;;
41685;SDS011;27370;42.764;23.432;2023-02-05T08:26:21;6.07;;;2.30;;
41685;SDS011;27370;42.764;23.432;2023-02-05T08:28:47;5.25;;;2.33;;
41685;SDS011;27370;42.764;23.432;2023-02-05T08:31:14;5.35;;;2.40;;
41685;SDS011;27370;42.764;23.432;2023-02-05T08:33:42;7.43;;;2.75;;
41685;SDS011;27370;42.764;23.432;2023-02-05T08:36:08;4.15;;;1.80;;
41685;SDS011;27370;42.764;23.432;2023-02-05T08:38:34;4.10;;;2.03;;
41685;SDS011;27370;42.764;23.432;2023-02-05T08:41:04;4.68;;;2.33;;
41685;SDS011;27370;42.764;23.432;2023-02-05T08:43:40;3.83;;;2.05;;
41685;SDS011;27370;42.764;23.432;2023-02-05T08:46:10;5.68;;;2.63;;
41685;SDS011;27370;42.764;23.432;2023-02-05T08:48:38;8.90;;;3.70;;
41685;SDS011;27370;42.764;23.432;2023-02-05T08:51:03;1.30;;;0.93;;
41685;SDS011;27370;42.764;23.432;2023-02-05T08:53:30;9.45;;;3.22;;
41685;SDS011;27370;42.764;23.432;2023-02-05T08:55:57;4.18;;;1.83;;
41685;SDS011;27370;42.764;23.432;2023-02-05T08:58:24;2.95;;;1.55;;
41685;SDS011;27370;42.764;23.432;2023-02-05T09:00:50;3.60;;;1.80;;
41685;SDS011;27370;42.764;23.432;2023-02-05T09:03:16;2.60;;;1.48;;
41685;SDS011;27370;42.764;23.432;2023-02-05T09:05:42;4.40;;;1.50;;
41685;SDS011;27370;42.764;23.432;2023-02-05T09:08:07;0.70;;;0.68;;
41685;SDS011;27370;42.764;23.432;2023-02-05T09:10:33;1.98;;;1.10;;
41685;SDS011;27370;42.764;23.432;2023-02-05T09:12:59;2.50;;;1.73;;
41685;SDS011;27370;42.764;23.432;2023-02-05T09:15:24;1.30;;;0.88;;
41685;SDS011;27370;42.764;23.432;2023-02-05T09:17:50;3.63;;;1.77;;
41685;SDS011;27370;42.764;23.432;2023-02-05T09:20:15;2.83;;;1.67;;
41685;SDS011;27370;42.764;23.432;2023-02-05T09:22:41;1.55;;;1.20;;
41685;SDS011;27370;42.764;23.432;2023-02-05T09:25:07;1.92;;;1.10;;
41685;SDS011;27370;42.764;23.432;2023-02-05T09:27:33;2.35;;;1.50;;
41685;SDS011;27370;42.764;23.432;2023-02-05T09:29:59;2.63;;;1.40;;
41685;SDS011;27370;42.764;23.432;2023-02-05T09:32:24;4.15;;;1.92;;
41685;SDS011;27370;42.764;23.432;2023-02-05T09:34:50;2.67;;;1.55;;
41685;SDS011;27370;42.764;23.432;2023-02-05T09:37:15;2.65;;;1.30;;
41685;SDS011;27370;42.764;23.432;2023-02-05T09:39:42;4.75;;;1.75;;
41685;SDS011;27370;42.764;23.432;2023-02-05T09:50:17;4.68;;;1.70;;
41685;SDS011;27370;42.764;23.432;2023-02-05T09:52:51;8.18;;;2.72;;
41685;SDS011;27370;42.764;23.432;2023-02-05T09:55:22;4.90;;;1.83;;
41685;SDS011;27370;42.764;23.432;2023-02-05T09:57:52;5.88;;;2.20;;
41685;SDS011;27370;42.764;23.432;2023-02-05T10:00:23;1.95;;;1.27;;
41685;SDS011;27370;42.764;23.432;2023-02-05T10:02:56;1.88;;;1.20;;
41685;SDS011;27370;42.764;23.432;2023-02-05T10:05:23;1.88;;;1.20;;
41685;SDS011;27370;42.764;23.432;2023-02-05T10:07:53;0.55;;;0.47;;
41685;SDS011;27370;42.764;23.432;2023-02-05T10:10:39;0.70;;;0.70;;
41685;SDS011;27370;42.764;23.432;2023-02-05T10:16:47;1.40;;;0.82;;
41685;SDS011;27370;42.764;23.432;2023-02-05T10:26:48;1.95;;;1.30;;
41685;SDS011;27370;42.764;23.432;2023-02-05T10:29:52;1.90;;;1.30;;
41685;SDS011;27370;42.764;23.432;2023-02-05T10:34:56;6.03;;;1.92;;
41685;SDS011;27370;42.764;23.432;2023-02-05T10:37:39;1.45;;;1.05;;
41685;SDS011;27370;42.764;23.432;2023-02-05T10:40:31;0.82;;;0.70;;
41685;SDS011;27370;42.764;23.432;2023-02-05T10:42:59;1.33;;;0.85;;
41685;SDS011;27370;42.764;23.432;2023-02-05T10:45:29;1.25;;;1.10;;
41685;SDS011;27370;42.764;23.432;2023-02-05T10:48:02;2.55;;;1.38;;
41685;SDS011;27370;42.764;23.432;2023-02-05T10:51:02;1.92;;;0.80;;
41685;SDS011;27370;42.764;23.432;2023-02-05T10:53:28;2.28;;;1.20;;
41685;SDS011;27370;42.764;23.432;2023-02-05T10:55:55;12.98;;;4.18;;
41685;SDS011;27370;42.764;23.432;2023-02-05T11:01:22;1.30;;;0.95;;
41685;SDS011;27370;42.764;23.432;2023-02-05T11:04:02;1.67;;;1.17;;
41685;SDS011;27370;42.764;23.432;2023-02-05T11:06:43;3.50;;;1.40;;
41685;SDS011;27370;42.764;23.432;2023-02-05T11:09:35;3.22;;;1.50;;
41685;SDS011;27370;42.764;23.432;2023-02-05T11:12:01;3.75;;;1.35;;
41685;SDS011;27370;42.764;23.432;2023-02-05T11:14:42;1.23;;;0.75;;
41685;SDS011;27370;42.764;23.432;2023-02-05T11:20:53;5.20;;;2.25;;
41685;SDS011;27370;42.764;23.432;2023-02-05T11:22:41;4.20;;;1.92;;
41685;SDS011;27370;42.764;23.432;2023-02-05T11:25:14;3.33;;;1.63;;
41685;SDS011;27370;42.764;23.432;2023-02-05T11:27:56;16.10;;;6.30;;
41685;SDS011;27370;42.764;23.432;2023-02-05T11:30:35;2.25;;;1.25;;
41685;SDS011;27370;42.764;23.432;2023-02-05T11:33:15;2.05;;;1.25;;
41685;SDS011;27370;42.764;23.432;2023-02-05T11:38:25;1.77;;;1.20;;
41685;SDS011;27370;42.764;23.432;2023-02-05T11:40:57;1.50;;;1.23;;
41685;SDS011;27370;42.764;23.432;2023-02-05T11:43:26;1.80;;;1.30;;
41685;SDS011;27370;42.764;23.432;2023-02-05T11:45:56;6.30;;;3.40;;
41685;SDS011;27370;42.764;23.432;2023-02-05T11:51:07;3.92;;;1.73;;
41685;SDS011;27370;42.764;23.432;2023-02-05T11:53:35;3.10;;;1.50;;
41685;SDS011;27370;42.764;23.432;2023-02-05T11:56:06;2.10;;;1.17;;
41685;SDS011;27370;42.764;23.432;2023-02-05T11:58:35;2.97;;;1.58;;
41685;SDS011;27370;42.764;23.432;2023-02-05T12:01:04;2.67;;;1.38;;
41685;SDS011;27370;42.764;23.432;2023-02-05T12:03:45;3.28;;;1.63;;
41685;SDS011;27370;42.764;23.432;2023-02-05T12:06:23;5.65;;;2.00;;
41685;SDS011;27370;42.764;23.432;2023-02-05T12:08:54;4.57;;;1.83;;
41685;SDS011;27370;42.764;23.432;2023-02-05T12:11:22;2.60;;;1.60;;
41685;SDS011;27370;42.764;23.432;2023-02-05T12:22:30;4.63;;;1.80;;
41685;SDS011;27370;42.764;23.432;2023-02-05T12:36:44;4.05;;;1.70;;
41685;SDS011;27370;42.764;23.432;2023-02-05T12:42:13;26.27;;;9.02;;
41685;SDS011;27370;42.764;23.432;2023-02-05T12:58:10;5.18;;;1.80;;
41685;SDS011;27370;42.764;23.432;2023-02-05T13:00:47;7.68;;;2.65;;
41685;SDS011;27370;42.764;23.432;2023-02-05T13:06:11;2.50;;;1.30;;
41685;SDS011;27370;42.764;23.432;2023-02-05T13:08:45;0.93;;;0.88;;
41685;SDS011;27370;42.764;23.432;2023-02-05T13:14:13;5.55;;;2.17;;
41685;SDS011;27370;42.764;23.432;2023-02-05T13:16:47;5.00;;;2.00;;
41685;SDS011;27370;42.764;23.432;2023-02-05T13:21:48;2.47;;;1.48;;
41685;SDS011;27370;42.764;23.432;2023-02-05T13:27:42;2.83;;;1.50;;
41685;SDS011;27370;42.764;23.432;2023-02-05T13:30:32;3.15;;;1.40;;
41685;SDS011;27370;42.764;23.432;2023-02-05T13:38:27;3.15;;;1.45;;
41685;SDS011;27370;42.764;23.432;2023-02-05T13:41:02;1.02;;;0.70;;
41685;SDS011;27370;42.764;23.432;2023-02-05T13:57:19;2.15;;;1.25;;
41685;SDS011;27370;42.764;23.432;2023-02-05T13:59:51;2.40;;;1.50;;
41685;SDS011;27370;42.764;23.432;2023-02-05T14:04:57;2.70;;;1.58;;
41685;SDS011;27370;42.764;23.432;2023-02-05T14:07:28;4.43;;;1.75;;
41685;SDS011;27370;42.764;23.432;2023-02-05T14:09:57;3.38;;;1.60;;
41685;SDS011;27370;42.764;23.432;2023-02-05T14:12:30;3.70;;;1.60;;
41685;SDS011;27370;42.764;23.432;2023-02-05T14:20:51;2.78;;;1.50;;
41685;SDS011;27370;42.764;23.432;2023-02-05T14:23:12;2.65;;;1.33;;
41685;SDS011;27370;42.764;23.432;2023-02-05T14:35:54;8.43;;;3.53;;
41685;SDS011;27370;42.764;23.432;2023-02-05T14:38:26;7.47;;;3.08;;
41685;SDS011;27370;42.764;23.432;2023-02-05T14:41:03;5.65;;;2.00;;
41685;SDS011;27370;42.764;23.432;2023-02-05T14:43:32;2.97;;;1.60;;
41685;SDS011;27370;42.764;23.432;2023-02-05T14:46:20;4.30;;;1.90;;
41685;SDS011;27370;42.764;23.432;2023-02-05T14:48:54;2.58;;;1.40;;
41685;SDS011;27370;42.764;23.432;2023-02-05T14:51:37;3.35;;;1.90;;
41685;SDS011;27370;42.764;23.432;2023-02-05T14:54:13;6.15;;;2.25;;
41685;SDS011;27370;42.764;23.432;2023-02-05T14:56:47;12.82;;;5.28;;
41685;SDS011;27370;42.764;23.432;2023-02-05T15:01:53;4.75;;;2.20;;
41685;SDS011;27370;42.764;23.432;2023-02-05T15:07:13;5.53;;;1.88;;
41685;SDS011;27370;42.764;23.432;2023-02-05T15:09:46;3.30;;;1.60;;
41685;SDS011;27370;42.764;23.432;2023-02-05T15:12:38;3.00;;;1.60;;
41685;SDS011;27370;42.764;23.432;2023-02-05T15:17:52;3.63;;;1.90;;
41685;SDS011;27370;42.764;23.432;2023-02-05T15:20:20;11.35;;;3.90;;
41685;SDS011;27370;42.764;23.432;2023-02-05T15:22:53;1.38;;;1.00;;
41685;SDS011;27370;42.764;23.432;2023-02-05T15:25:30;4.68;;;1.40;;
41685;SDS011;27370;42.764;23.432;2023-02-05T15:28:27;1.65;;;0.73;;
41685;SDS011;27370;42.764;23.432;2023-02-05T15:33:33;3.55;;;1.80;;
41685;SDS011;27370;42.764;23.432;2023-02-05T15:36:06;2.65;;;1.40;;
41685;SDS011;27370;42.764;23.432;2023-02-05T15:38:45;4.65;;;1.90;;
41685;SDS011;27370;42.764;23.432;2023-02-05T15:41:16;5.43;;;2.00;;
41685;SDS011;27370;42.764;23.432;2023-02-05T15:46:28;11.45;;;4.97;;
41685;SDS011;27370;42.764;23.432;2023-02-05T15:48:57;14.07;;;6.13;;
41685;SDS011;27370;42.764;23.432;2023-02-05T15:51:30;11.82;;;5.03;;
41685;SDS011;27370;42.764;23.432;2023-02-05T15:53:59;16.05;;;6.90;;
41685;SDS011;27370;42.764;23.432;2023-02-05T15:56:31;14.57;;;6.85;;
41685;SDS011;27370;42.764;23.432;2023-02-05T15:59:01;15.20;;;7.70;;
41685;SDS011;27370;42.764;23.432;2023-02-05T16:01:38;13.85;;;7.13;;
41685;SDS011;27370;42.764;23.432;2023-02-05T16:04:23;19.52;;;8.63;;
41685;SDS011;27370;42.764;23.432;2023-02-05T16:06:59;17.60;;;7.70;;
41685;SDS011;27370;42.764;23.432;2023-02-05T16:09:27;14.45;;;7.13;;
41685;SDS011;27370;42.764;23.432;2023-02-05T16:11:54;14.47;;;7.00;;
41685;SDS011;27370;42.764;23.432;2023-02-05T16:14:21;12.45;;;5.93;;
41685;SDS011;27370;42.764;23.432;2023-02-05T16:17:00;13.10;;;6.85;;
41685;SDS011;27370;42.764;23.432;2023-02-05T16:19:31;16.60;;;7.45;;
41685;SDS011;27370;42.764;23.432;2023-02-05T16:24:39;14.13;;;6.20;;
41685;SDS011;27370;42.764;23.432;2023-02-05T16:27:11;24.33;;;8.70;;
41685;SDS011;27370;42.764;23.432;2023-02-05T16:29:45;15.43;;;6.82;;
41685;SDS011;27370;42.764;23.432;2023-02-05T16:32:27;15.07;;;6.82;;
41685;SDS011;27370;42.764;23.432;2023-02-05T16:34:58;14.73;;;5.70;;
41685;SDS011;27370;42.764;23.432;2023-02-05T16:37:32;13.25;;;5.57;;
41685;SDS011;27370;42.764;23.432;2023-02-05T16:39:59;16.05;;;7.07;;
41685;SDS011;27370;42.764;23.432;2023-02-05T16:42:40;14.82;;;7.35;;
41685;SDS011;27370;42.764;23.432;2023-02-05T16:47:35;14.10;;;7.25;;
41685;SDS011;27370;42.764;23.432;2023-02-05T16:50:30;14.65;;;7.50;;
41685;SDS011;27370;42.764;23.432;2023-02-05T16:56:16;16.10;;;6.30;;
41685;SDS011;27370;42.764;23.432;2023-02-05T16:58:50;15.50;;;7.30;;
41685;SDS011;27370;42.764;23.432;2023-02-05T17:01:25;16.05;;;8.13;;
41685;SDS011;27370;42.764;23.432;2023-02-05T17:03:53;16.75;;;8.18;;
41685;SDS011;27370;42.764;23.432;2023-02-05T17:06:20;17.67;;;8.73;;
41685;SDS011;27370;42.764;23.432;2023-02-05T17:08:50;19.20;;;8.52;;
41685;SDS011;27370;42.764;23.432;2023-02-05T17:16:54;13.18;;;5.57;;
41685;SDS011;27370;42.764;23.432;2023-02-05T17:19:26;14.48;;;5.43;;
41685;SDS011;27370;42.764;23.432;2023-02-05T17:22:38;12.85;;;5.38;;
41685;SDS011;27370;42.764;23.432;2023-02-05T17:24:39;14.25;;;6.15;;
41685;SDS011;27370;42.764;23.432;2023-02-05T17:27:33;14.45;;;6.30;;
41685;SDS011;27370;42.764;23.432;2023-02-05T17:30:02;13.25;;;6.07;;
41685;SDS011;27370;42.764;23.432;2023-02-05T17:32:29;10.98;;;5.45;;
41685;SDS011;27370;42.764;23.432;2023-02-05T17:34:56;12.68;;;6.28;;
41685;SDS011;27370;42.764;23.432;2023-02-05T17:37:21;11.63;;;5.95;;
41685;SDS011;27370;42.764;23.432;2023-02-05T17:39:47;13.27;;;6.60;;
41685;SDS011;27370;42.764;23.432;2023-02-05T17:42:21;12.95;;;6.80;;
41685;SDS011;27370;42.764;23.432;2023-02-05T17:44:50;14.18;;;6.90;;
41685;SDS011;27370;42.764;23.432;2023-02-05T17:47:17;14.18;;;6.80;;
41685;SDS011;27370;42.764;23.432;2023-02-05T17:49:44;13.43;;;6.78;;